LOWI/INN METAR and TAF weather

Enter ICAO airport designator
Station Type Date Time Source
LOWI METAR 2019/08/23 18:20 UTC NOAA

LOWI 231820Z VRB01KT 9999 FEW020 BKN150 19/17 Q1023 NOSIG


Station Type Date Time Source
LOWI Decoded METAR 2019/08/23 18:20 UTC NOAA

Station name not available
Aug 23, 2019 - 02:20 PM EDT / 2019.08.23 1820 UTC
Wind: Variable at 1 MPH (1 KT):0
Visibility: greater than 7 mile(s):0
Sky conditions: mostly cloudy
Temperature: 66 F (19 C)
Dew Point: 62 F (17 C)
Relative Humidity: 88%
Pressure (altimeter): 30.21 in. Hg (1023 hPa)
ob: LOWI 231820Z VRB01KT 9999 FEW020 BKN150 19/17 Q1023 NOSIG
cycle: 18

Station Type Date Time Source
LOWI TAF 2019/08/23 18:18 UTC NOAA

TAF LOWI 231715Z 2318/2418 27003KT 9999 FEW060 SCT100 TX26/2414Z TN15/2404Z PROB30 2322/2408 FEW010 BKN020
BECMG 2410/2412 08008KT FEW060 SCT300
TEMPO 2413/2417 VRB15G25KT -TSRA FEW060CB BKN080

Example: see airport list